sensor_id;sensor_type;location;lat;lon;timestamp;P1;durP1;ratioP1;P2;durP2;ratioP2
48014;SDS011;33780;51.034;7.120;2022-08-01T00:00:00;3.95;;;2.08;;
48014;SDS011;33780;51.034;7.120;2022-08-01T00:02:28;4.78;;;2.17;;
48014;SDS011;33780;51.034;7.120;2022-08-01T00:04:54;3.97;;;1.90;;
48014;SDS011;33780;51.034;7.120;2022-08-01T00:07:19;3.10;;;1.58;;
48014;SDS011;33780;51.034;7.120;2022-08-01T00:09:45;5.95;;;2.53;;
48014;SDS011;33780;51.034;7.120;2022-08-01T00:12:10;2.65;;;1.60;;
48014;SDS011;33780;51.034;7.120;2022-08-01T00:14:35;2.65;;;1.27;;
48014;SDS011;33780;51.034;7.120;2022-08-01T00:17:01;3.90;;;1.40;;
48014;SDS011;33780;51.034;7.120;2022-08-01T00:19:27;1.92;;;1.23;;
48014;SDS011;33780;51.034;7.120;2022-08-01T00:21:52;3.80;;;1.42;;
48014;SDS011;33780;51.034;7.120;2022-08-01T00:24:18;2.25;;;1.45;;
48014;SDS011;33780;51.034;7.120;2022-08-01T00:26:43;3.13;;;1.30;;
48014;SDS011;33780;51.034;7.120;2022-08-01T00:29:08;3.42;;;1.30;;
48014;SDS011;33780;51.034;7.120;2022-08-01T00:31:33;3.53;;;1.23;;
48014;SDS011;33780;51.034;7.120;2022-08-01T00:33:59;2.72;;;1.58;;
48014;SDS011;33780;51.034;7.120;2022-08-01T00:36:24;3.08;;;1.40;;
48014;SDS011;33780;51.034;7.120;2022-08-01T00:38:49;2.50;;;1.40;;
48014;SDS011;33780;51.034;7.120;2022-08-01T00:41:18;2.30;;;1.48;;
48014;SDS011;33780;51.034;7.120;2022-08-01T00:43:43;2.90;;;1.60;;
48014;SDS011;33780;51.034;7.120;2022-08-01T00:49:20;2.47;;;1.40;;
48014;SDS011;33780;51.034;7.120;2022-08-01T00:51:45;3.13;;;1.58;;
48014;SDS011;33780;51.034;7.120;2022-08-01T00:54:11;3.30;;;1.50;;
48014;SDS011;33780;51.034;7.120;2022-08-01T00:56:36;2.70;;;1.40;;
48014;SDS011;33780;51.034;7.120;2022-08-01T00:59:01;2.70;;;1.60;;
48014;SDS011;33780;51.034;7.120;2022-08-01T01:01:28;2.38;;;1.40;;
48014;SDS011;33780;51.034;7.120;2022-08-01T01:03:53;2.85;;;1.30;;
48014;SDS011;33780;51.034;7.120;2022-08-01T01:09:11;2.70;;;1.15;;
48014;SDS011;33780;51.034;7.120;2022-08-01T01:12:53;4.97;;;1.42;;
48014;SDS011;33780;51.034;7.120;2022-08-01T01:15:30;2.47;;;1.52;;
48014;SDS011;33780;51.034;7.120;2022-08-01T01:18:29;1.90;;;1.20;;
48014;SDS011;33780;51.034;7.120;2022-08-01T01:21:23;2.10;;;1.30;;
48014;SDS011;33780;51.034;7.120;2022-08-01T01:24:21;1.98;;;1.20;;
48014;SDS011;33780;51.034;7.120;2022-08-01T01:27:07;3.05;;;1.33;;
48014;SDS011;33780;51.034;7.120;2022-08-01T01:29:44;3.38;;;1.10;;
48014;SDS011;33780;51.034;7.120;2022-08-01T01:35:05;4.22;;;1.95;;
48014;SDS011;33780;51.034;7.120;2022-08-01T01:37:53;2.22;;;1.27;;
48014;SDS011;33780;51.034;7.120;2022-08-01T01:40:23;2.60;;;1.40;;
48014;SDS011;33780;51.034;7.120;2022-08-01T01:42:51;2.75;;;1.27;;
48014;SDS011;33780;51.034;7.120;2022-08-01T01:45:21;2.42;;;1.35;;
48014;SDS011;33780;51.034;7.120;2022-08-01T01:47:49;3.15;;;1.58;;
48014;SDS011;33780;51.034;7.120;2022-08-01T01:50:15;3.92;;;1.90;;
48014;SDS011;33780;51.034;7.120;2022-08-01T01:52:48;3.08;;;1.50;;
48014;SDS011;33780;51.034;7.120;2022-08-01T01:55:16;2.42;;;1.15;;
48014;SDS011;33780;51.034;7.120;2022-08-01T01:57:44;3.50;;;1.25;;
48014;SDS011;33780;51.034;7.120;2022-08-01T02:00:11;2.88;;;1.30;;
48014;SDS011;33780;51.034;7.120;2022-08-01T02:02:38;3.13;;;1.58;;
48014;SDS011;33780;51.034;7.120;2022-08-01T02:05:05;3.60;;;1.88;;
48014;SDS011;33780;51.034;7.120;2022-08-01T02:07:33;3.38;;;1.60;;
48014;SDS011;33780;51.034;7.120;2022-08-01T02:10:00;4.13;;;1.90;;
48014;SDS011;33780;51.034;7.120;2022-08-01T02:12:29;4.88;;;2.10;;
48014;SDS011;33780;51.034;7.120;2022-08-01T02:14:59;4.07;;;2.20;;
48014;SDS011;33780;51.034;7.120;2022-08-01T02:17:25;4.32;;;2.20;;
48014;SDS011;33780;51.034;7.120;2022-08-01T02:19:52;4.05;;;2.10;;
48014;SDS011;33780;51.034;7.120;2022-08-01T02:22:36;4.10;;;2.20;;
48014;SDS011;33780;51.034;7.120;2022-08-01T02:25:15;4.90;;;2.20;;
48014;SDS011;33780;51.034;7.120;2022-08-01T02:27:59;3.72;;;2.05;;
48014;SDS011;33780;51.034;7.120;2022-08-01T02:30:32;4.47;;;2.13;;
48014;SDS011;33780;51.034;7.120;2022-08-01T02:33:08;3.47;;;1.77;;
48014;SDS011;33780;51.034;7.120;2022-08-01T02:35:41;3.70;;;2.00;;
48014;SDS011;33780;51.034;7.120;2022-08-01T02:38:09;5.45;;;2.20;;
48014;SDS011;33780;51.034;7.120;2022-08-01T02:40:37;4.07;;;2.25;;
48014;SDS011;33780;51.034;7.120;2022-08-01T02:43:05;3.28;;;2.10;;
48014;SDS011;33780;51.034;7.120;2022-08-01T02:45:33;4.10;;;2.42;;
48014;SDS011;33780;51.034;7.120;2022-08-01T02:48:10;4.15;;;2.20;;
48014;SDS011;33780;51.034;7.120;2022-08-01T02:50:37;3.95;;;2.20;;
48014;SDS011;33780;51.034;7.120;2022-08-01T02:53:04;3.13;;;1.88;;
48014;SDS011;33780;51.034;7.120;2022-08-01T02:55:31;4.43;;;2.30;;
48014;SDS011;33780;51.034;7.120;2022-08-01T02:57:57;3.25;;;2.20;;
48014;SDS011;33780;51.034;7.120;2022-08-01T03:00:27;4.90;;;2.20;;
48014;SDS011;33780;51.034;7.120;2022-08-01T03:02:57;3.58;;;1.80;;
48014;SDS011;33780;51.034;7.120;2022-08-01T03:05:24;5.18;;;2.28;;
48014;SDS011;33780;51.034;7.120;2022-08-01T03:07:51;3.60;;;2.10;;
48014;SDS011;33780;51.034;7.120;2022-08-01T03:10:18;4.85;;;2.10;;
48014;SDS011;33780;51.034;7.120;2022-08-01T03:12:45;3.35;;;1.92;;
48014;SDS011;33780;51.034;7.120;2022-08-01T03:15:14;4.70;;;1.98;;
48014;SDS011;33780;51.034;7.120;2022-08-01T03:17:40;3.65;;;2.17;;
48014;SDS011;33780;51.034;7.120;2022-08-01T03:20:10;3.75;;;2.08;;
48014;SDS011;33780;51.034;7.120;2022-08-01T03:22:38;4.20;;;2.17;;
48014;SDS011;33780;51.034;7.120;2022-08-01T03:25:05;3.33;;;2.10;;
48014;SDS011;33780;51.034;7.120;2022-08-01T03:27:32;2.80;;;1.73;;
48014;SDS011;33780;51.034;7.120;2022-08-01T03:30:00;3.30;;;1.98;;
48014;SDS011;33780;51.034;7.120;2022-08-01T03:32:31;3.28;;;1.98;;
48014;SDS011;33780;51.034;7.120;2022-08-01T03:34:56;2.83;;;1.83;;
48014;SDS011;33780;51.034;7.120;2022-08-01T03:37:26;3.25;;;1.75;;
48014;SDS011;33780;51.034;7.120;2022-08-01T03:39:58;3.13;;;1.97;;
48014;SDS011;33780;51.034;7.120;2022-08-01T03:42:48;3.17;;;1.90;;
48014;SDS011;33780;51.034;7.120;2022-08-01T03:45:25;3.53;;;2.05;;
48014;SDS011;33780;51.034;7.120;2022-08-01T03:47:53;3.47;;;2.20;;
48014;SDS011;33780;51.034;7.120;2022-08-01T03:50:23;5.88;;;2.40;;
48014;SDS011;33780;51.034;7.120;2022-08-01T03:52:50;2.95;;;1.95;;
48014;SDS011;33780;51.034;7.120;2022-08-01T03:55:16;3.95;;;2.08;;
48014;SDS011;33780;51.034;7.120;2022-08-01T03:57:43;3.22;;;2.08;;
48014;SDS011;33780;51.034;7.120;2022-08-01T04:00:10;5.13;;;2.10;;
48014;SDS011;33780;51.034;7.120;2022-08-01T04:02:36;3.45;;;2.00;;
48014;SDS011;33780;51.034;7.120;2022-08-01T04:05:03;4.55;;;2.47;;
48014;SDS011;33780;51.034;7.120;2022-08-01T04:07:30;3.47;;;2.03;;
48014;SDS011;33780;51.034;7.120;2022-08-01T04:09:57;4.25;;;1.90;;
48014;SDS011;33780;51.034;7.120;2022-08-01T04:12:23;4.50;;;2.10;;
48014;SDS011;33780;51.034;7.120;2022-08-01T04:14:49;4.03;;;2.28;;
48014;SDS011;33780;51.034;7.120;2022-08-01T04:17:18;3.25;;;2.20;;
48014;SDS011;33780;51.034;7.120;2022-08-01T04:19:44;3.67;;;2.15;;
48014;SDS011;33780;51.034;7.120;2022-08-01T04:22:10;4.28;;;2.35;;
48014;SDS011;33780;51.034;7.120;2022-08-01T04:24:36;3.90;;;2.45;;
48014;SDS011;33780;51.034;7.120;2022-08-01T04:27:03;6.00;;;2.83;;
48014;SDS011;33780;51.034;7.120;2022-08-01T04:29:34;7.05;;;2.92;;
48014;SDS011;33780;51.034;7.120;2022-08-01T04:32:01;6.78;;;3.30;;
48014;SDS011;33780;51.034;7.120;2022-08-01T04:34:28;6.10;;;3.47;;
48014;SDS011;33780;51.034;7.120;2022-08-01T04:36:56;7.00;;;3.85;;
48014;SDS011;33780;51.034;7.120;2022-08-01T04:39:26;5.80;;;3.70;;
48014;SDS011;33780;51.034;7.120;2022-08-01T04:41:56;7.88;;;3.25;;
48014;SDS011;33780;51.034;7.120;2022-08-01T04:44:25;7.10;;;3.50;;
48014;SDS011;33780;51.034;7.120;2022-08-01T04:46:52;5.82;;;3.53;;
48014;SDS011;33780;51.034;7.120;2022-08-01T04:49:19;7.68;;;3.67;;
48014;SDS011;33780;51.034;7.120;2022-08-01T04:51:52;6.20;;;3.65;;
48014;SDS011;33780;51.034;7.120;2022-08-01T04:54:23;7.70;;;4.13;;
48014;SDS011;33780;51.034;7.120;2022-08-01T04:56:52;6.78;;;3.85;;
48014;SDS011;33780;51.034;7.120;2022-08-01T04:59:23;6.87;;;3.77;;
48014;SDS011;33780;51.034;7.120;2022-08-01T05:02:11;6.63;;;3.33;;
48014;SDS011;33780;51.034;7.120;2022-08-01T05:04:39;6.72;;;4.00;;
48014;SDS011;33780;51.034;7.120;2022-08-01T05:07:06;6.43;;;3.70;;
48014;SDS011;33780;51.034;7.120;2022-08-01T05:09:35;5.93;;;3.50;;
48014;SDS011;33780;51.034;7.120;2022-08-01T05:12:01;5.80;;;3.42;;
48014;SDS011;33780;51.034;7.120;2022-08-01T05:14:28;6.85;;;3.58;;
48014;SDS011;33780;51.034;7.120;2022-08-01T05:16:56;6.85;;;4.07;;
48014;SDS011;33780;51.034;7.120;2022-08-01T05:19:28;6.53;;;3.85;;
48014;SDS011;33780;51.034;7.120;2022-08-01T05:21:55;7.68;;;3.60;;
48014;SDS011;33780;51.034;7.120;2022-08-01T05:24:21;7.22;;;3.95;;
48014;SDS011;33780;51.034;7.120;2022-08-01T05:26:47;8.98;;;4.05;;
48014;SDS011;33780;51.034;7.120;2022-08-01T05:29:13;7.07;;;3.88;;
48014;SDS011;33780;51.034;7.120;2022-08-01T05:31:39;10.52;;;4.30;;
48014;SDS011;33780;51.034;7.120;2022-08-01T05:34:15;7.50;;;3.85;;
48014;SDS011;33780;51.034;7.120;2022-08-01T05:36:41;8.38;;;4.00;;
48014;SDS011;33780;51.034;7.120;2022-08-01T05:39:06;7.55;;;4.40;;
48014;SDS011;33780;51.034;7.120;2022-08-01T05:41:32;7.75;;;4.10;;
48014;SDS011;33780;51.034;7.120;2022-08-01T05:43:57;9.20;;;4.13;;
48014;SDS011;33780;51.034;7.120;2022-08-01T05:46:25;8.45;;;4.60;;
48014;SDS011;33780;51.034;7.120;2022-08-01T05:48:50;6.57;;;3.65;;
48014;SDS011;33780;51.034;7.120;2022-08-01T05:51:16;7.35;;;4.05;;
48014;SDS011;33780;51.034;7.120;2022-08-01T05:53:42;9.25;;;4.60;;
48014;SDS011;33780;51.034;7.120;2022-08-01T05:56:07;6.90;;;4.18;;
48014;SDS011;33780;51.034;7.120;2022-08-01T05:58:33;8.02;;;4.32;;
48014;SDS011;33780;51.034;7.120;2022-08-01T06:00:58;9.40;;;4.35;;
48014;SDS011;33780;51.034;7.120;2022-08-01T06:03:24;8.68;;;3.78;;
48014;SDS011;33780;51.034;7.120;2022-08-01T06:05:56;9.73;;;4.10;;
48014;SDS011;33780;51.034;7.120;2022-08-01T06:08:30;8.95;;;4.75;;
48014;SDS011;33780;51.034;7.120;2022-08-01T06:11:03;7.82;;;4.32;;
48014;SDS011;33780;51.034;7.120;2022-08-01T06:13:46;6.88;;;3.90;;
48014;SDS011;33780;51.034;7.120;2022-08-01T06:23:41;9.02;;;4.85;;
48014;SDS011;33780;51.034;7.120;2022-08-01T06:26:16;8.90;;;4.65;;
48014;SDS011;33780;51.034;7.120;2022-08-01T06:28:54;8.77;;;4.85;;
48014;SDS011;33780;51.034;7.120;2022-08-01T06:31:44;9.60;;;4.10;;
48014;SDS011;33780;51.034;7.120;2022-08-01T06:37:50;7.85;;;4.10;;
48014;SDS011;33780;51.034;7.120;2022-08-01T06:40:18;9.07;;;5.00;;
48014;SDS011;33780;51.034;7.120;2022-08-01T06:42:49;12.65;;;5.20;;
48014;SDS011;33780;51.034;7.120;2022-08-01T06:45:21;10.15;;;5.30;;
48014;SDS011;33780;51.034;7.120;2022-08-01T06:47:54;7.72;;;4.78;;
48014;SDS011;33780;51.034;7.120;2022-08-01T06:50:25;7.65;;;4.93;;
48014;SDS011;33780;51.034;7.120;2022-08-01T06:53:04;9.95;;;5.00;;
48014;SDS011;33780;51.034;7.120;2022-08-01T06:55:52;10.48;;;4.55;;
48014;SDS011;33780;51.034;7.120;2022-08-01T06:58:26;10.60;;;4.85;;
48014;SDS011;33780;51.034;7.120;2022-08-01T07:01:03;7.20;;;4.53;;
48014;SDS011;33780;51.034;7.120;2022-08-01T07:03:38;9.82;;;5.00;;
48014;SDS011;33780;51.034;7.120;2022-08-01T07:06:14;7.55;;;4.50;;
48014;SDS011;33780;51.034;7.120;2022-08-01T07:08:45;9.90;;;4.72;;
48014;SDS011;33780;51.034;7.120;2022-08-01T07:11:14;8.48;;;4.20;;
48014;SDS011;33780;51.034;7.120;2022-08-01T07:13:57;8.85;;;4.63;;
48014;SDS011;33780;51.034;7.120;2022-08-01T07:16:49;6.63;;;4.60;;
48014;SDS011;33780;51.034;7.120;2022-08-01T07:19:15;8.82;;;4.45;;
48014;SDS011;33780;51.034;7.120;2022-08-01T07:21:44;9.35;;;4.57;;
48014;SDS011;33780;51.034;7.120;2022-08-01T07:24:13;10.63;;;4.43;;
48014;SDS011;33780;51.034;7.120;2022-08-01T07:34:03;6.97;;;4.68;;
48014;SDS011;33780;51.034;7.120;2022-08-01T07:40:01;9.48;;;4.40;;
48014;SDS011;33780;51.034;7.120;2022-08-01T07:42:32;6.00;;;4.03;;
48014;SDS011;33780;51.034;7.120;2022-08-01T07:45:11;5.82;;;4.30;;
48014;SDS011;33780;51.034;7.120;2022-08-01T07:47:53;6.60;;;4.25;;
48014;SDS011;33780;51.034;7.120;2022-08-01T07:50:45;6.72;;;4.03;;
48014;SDS011;33780;51.034;7.120;2022-08-01T07:53:22;7.32;;;4.38;;
48014;SDS011;33780;51.034;7.120;2022-08-01T07:55:51;7.95;;;4.32;;
48014;SDS011;33780;51.034;7.120;2022-08-01T07:58:33;8.25;;;4.38;;
48014;SDS011;33780;51.034;7.120;2022-08-01T08:01:13;9.65;;;4.80;;
48014;SDS011;33780;51.034;7.120;2022-08-01T08:03:45;6.75;;;3.90;;
48014;SDS011;33780;51.034;7.120;2022-08-01T08:06:19;8.90;;;4.47;;
48014;SDS011;33780;51.034;7.120;2022-08-01T08:08:58;6.28;;;4.20;;
48014;SDS011;33780;51.034;7.120;2022-08-01T08:11:45;7.20;;;4.40;;
48014;SDS011;33780;51.034;7.120;2022-08-01T08:14:21;7.28;;;4.28;;
48014;SDS011;33780;51.034;7.120;2022-08-01T08:16:59;6.60;;;4.43;;
48014;SDS011;33780;51.034;7.120;2022-08-01T08:19:49;9.13;;;4.07;;
48014;SDS011;33780;51.034;7.120;2022-08-01T08:22:15;6.80;;;4.25;;
48014;SDS011;33780;51.034;7.120;2022-08-01T08:24:43;6.43;;;4.18;;
48014;SDS011;33780;51.034;7.120;2022-08-01T08:27:12;6.35;;;4.60;;
48014;SDS011;33780;51.034;7.120;2022-08-01T08:29:50;5.82;;;4.07;;
48014;SDS011;33780;51.034;7.120;2022-08-01T08:32:22;6.68;;;4.10;;
48014;SDS011;33780;51.034;7.120;2022-08-01T08:35:04;7.35;;;4.30;;
48014;SDS011;33780;51.034;7.120;2022-08-01T08:37:36;6.07;;;4.68;;
48014;SDS011;33780;51.034;7.120;2022-08-01T08:40:05;7.13;;;4.60;;
48014;SDS011;33780;51.034;7.120;2022-08-01T08:42:31;6.22;;;4.55;;
48014;SDS011;33780;51.034;7.120;2022-08-01T08:45:07;5.57;;;3.80;;
48014;SDS011;33780;51.034;7.120;2022-08-01T08:47:32;6.57;;;4.75;;
48014;SDS011;33780;51.034;7.120;2022-08-01T08:49:59;6.13;;;4.35;;
48014;SDS011;33780;51.034;7.120;2022-08-01T08:52:30;6.20;;;4.38;;
48014;SDS011;33780;51.034;7.120;2022-08-01T08:55:01;6.15;;;4.57;;
48014;SDS011;33780;51.034;7.120;2022-08-01T08:57:26;8.35;;;4.43;;
48014;SDS011;33780;51.034;7.120;2022-08-01T08:59:52;7.00;;;4.00;;
48014;SDS011;33780;51.034;7.120;2022-08-01T09:02:19;6.22;;;3.58;;
48014;SDS011;33780;51.034;7.120;2022-08-01T09:04:46;6.45;;;4.22;;
48014;SDS011;33780;51.034;7.120;2022-08-01T09:07:13;5.15;;;3.70;;
48014;SDS011;33780;51.034;7.120;2022-08-01T09:09:39;6.40;;;3.53;;
48014;SDS011;33780;51.034;7.120;2022-08-01T09:12:04;8.02;;;3.55;;
48014;SDS011;33780;51.034;7.120;2022-08-01T09:14:30;4.25;;;3.28;;
48014;SDS011;33780;51.034;7.120;2022-08-01T09:17:03;4.32;;;3.28;;
48014;SDS011;33780;51.034;7.120;2022-08-01T09:19:37;5.00;;;3.47;;
48014;SDS011;33780;51.034;7.120;2022-08-01T09:22:14;5.43;;;3.05;;
48014;SDS011;33780;51.034;7.120;2022-08-01T09:25:06;5.55;;;3.15;;
48014;SDS011;33780;51.034;7.120;2022-08-01T09:27:34;4.50;;;3.10;;
48014;SDS011;33780;51.034;7.120;2022-08-01T09:30:10;4.30;;;2.72;;
48014;SDS011;33780;51.034;7.120;2022-08-01T09:32:37;4.05;;;2.67;;
48014;SDS011;33780;51.034;7.120;2022-08-01T09:37:49;2.90;;;2.03;;
48014;SDS011;33780;51.034;7.120;2022-08-01T09:40:14;3.58;;;2.30;;
48014;SDS011;33780;51.034;7.120;2022-08-01T09:42:40;3.13;;;2.00;;
48014;SDS011;33780;51.034;7.120;2022-08-01T09:45:05;3.10;;;2.20;;
48014;SDS011;33780;51.034;7.120;2022-08-01T09:47:37;3.53;;;2.10;;
48014;SDS011;33780;51.034;7.120;2022-08-01T09:50:04;4.15;;;2.20;;
48014;SDS011;33780;51.034;7.120;2022-08-01T09:52:30;4.40;;;2.35;;
48014;SDS011;33780;51.034;7.120;2022-08-01T09:54:57;3.80;;;2.50;;
48014;SDS011;33780;51.034;7.120;2022-08-01T09:57:25;4.85;;;2.35;;
48014;SDS011;33780;51.034;7.120;2022-08-01T09:59:53;3.60;;;2.45;;
48014;SDS011;33780;51.034;7.120;2022-08-01T10:02:40;3.78;;;2.20;;
48014;SDS011;33780;51.034;7.120;2022-08-01T10:05:07;2.75;;;2.00;;
48014;SDS011;33780;51.034;7.120;2022-08-01T10:10:21;3.00;;;2.03;;
48014;SDS011;33780;51.034;7.120;2022-08-01T10:12:47;5.40;;;2.05;;
48014;SDS011;33780;51.034;7.120;2022-08-01T10:15:14;3.67;;;2.03;;
48014;SDS011;33780;51.034;7.120;2022-08-01T10:17:41;3.17;;;2.05;;
48014;SDS011;33780;51.034;7.120;2022-08-01T10:20:11;3.30;;;1.85;;
48014;SDS011;33780;51.034;7.120;2022-08-01T10:22:38;3.55;;;2.03;;
48014;SDS011;33780;51.034;7.120;2022-08-01T10:25:04;2.92;;;1.88;;
48014;SDS011;33780;51.034;7.120;2022-08-01T10:27:31;3.58;;;2.10;;
48014;SDS011;33780;51.034;7.120;2022-08-01T10:29:59;5.00;;;2.40;;
48014;SDS011;33780;51.034;7.120;2022-08-01T10:32:33;4.43;;;2.47;;
48014;SDS011;33780;51.034;7.120;2022-08-01T10:35:03;5.18;;;2.10;;
48014;SDS011;33780;51.034;7.120;2022-08-01T10:37:29;4.38;;;2.33;;
48014;SDS011;33780;51.034;7.120;2022-08-01T10:40:04;3.17;;;1.80;;
48014;SDS011;33780;51.034;7.120;2022-08-01T10:42:31;4.18;;;2.50;;
48014;SDS011;33780;51.034;7.120;2022-08-01T10:45:25;4.20;;;2.53;;
48014;SDS011;33780;51.034;7.120;2022-08-01T10:48:05;3.30;;;2.30;;
48014;SDS011;33780;51.034;7.120;2022-08-01T10:50:46;3.67;;;2.35;;
48014;SDS011;33780;51.034;7.120;2022-08-01T10:53:30;4.82;;;2.75;;
48014;SDS011;33780;51.034;7.120;2022-08-01T11:04:20;2.78;;;2.03;;
48014;SDS011;33780;51.034;7.120;2022-08-01T11:06:54;3.88;;;2.10;;
48014;SDS011;33780;51.034;7.120;2022-08-01T11:09:41;3.75;;;1.88;;
48014;SDS011;33780;51.034;7.120;2022-08-01T11:12:23;4.53;;;2.33;;
48014;SDS011;33780;51.034;7.120;2022-08-01T11:20:07;2.83;;;1.73;;
48014;SDS011;33780;51.034;7.120;2022-08-01T11:38:35;2.50;;;1.80;;
48014;SDS011;33780;51.034;7.120;2022-08-01T11:41:21;2.80;;;1.80;;
48014;SDS011;33780;51.034;7.120;2022-08-01T11:44:04;3.22;;;1.88;;
48014;SDS011;33780;51.034;7.120;2022-08-01T11:52:01;3.67;;;1.60;;
48014;SDS011;33780;51.034;7.120;2022-08-01T11:54:45;2.42;;;1.50;;
48014;SDS011;33780;51.034;7.120;2022-08-01T11:57:14;2.40;;;1.48;;
48014;SDS011;33780;51.034;7.120;2022-08-01T11:59:44;2.38;;;1.50;;
48014;SDS011;33780;51.034;7.120;2022-08-01T12:02:17;2.25;;;1.33;;
48014;SDS011;33780;51.034;7.120;2022-08-01T12:07:22;1.98;;;1.45;;
48014;SDS011;33780;51.034;7.120;2022-08-01T12:09:55;2.85;;;1.20;;
48014;SDS011;33780;51.034;7.120;2022-08-01T12:12:23;2.30;;;1.33;;
48014;SDS011;33780;51.034;7.120;2022-08-01T12:14:53;1.90;;;1.20;;
48014;SDS011;33780;51.034;7.120;2022-08-01T12:17:26;3.22;;;1.00;;
48014;SDS011;33780;51.034;7.120;2022-08-01T12:19:53;1.60;;;1.10;;
48014;SDS011;33780;51.034;7.120;2022-08-01T12:22:20;1.85;;;1.00;;
48014;SDS011;33780;51.034;7.120;2022-08-01T12:24:47;2.20;;;0.88;;
48014;SDS011;33780;51.034;7.120;2022-08-01T12:27:13;2.42;;;0.93;;
48014;SDS011;33780;51.034;7.120;2022-08-01T12:29:52;1.55;;;0.80;;
48014;SDS011;33780;51.034;7.120;2022-08-01T12:34:48;1.75;;;0.98;;
48014;SDS011;33780;51.034;7.120;2022-08-01T12:37:14;1.92;;;1.25;;
48014;SDS011;33780;51.034;7.120;2022-08-01T12:39:40;2.38;;;1.05;;
48014;SDS011;33780;51.034;7.120;2022-08-01T12:42:06;1.45;;;0.88;;
48014;SDS011;33780;51.034;7.120;2022-08-01T12:44:32;2.03;;;1.25;;
48014;SDS011;33780;51.034;7.120;2022-08-01T12:46:59;2.63;;;1.00;;
48014;SDS011;33780;51.034;7.120;2022-08-01T12:49:25;2.60;;;1.10;;
48014;SDS011;33780;51.034;7.120;2022-08-01T12:51:52;1.60;;;0.90;;
48014;SDS011;33780;51.034;7.120;2022-08-01T12:54:18;1.92;;;1.00;;
48014;SDS011;33780;51.034;7.120;2022-08-01T12:56:44;2.08;;;0.85;;
48014;SDS011;33780;51.034;7.120;2022-08-01T12:59:26;1.60;;;1.00;;
48014;SDS011;33780;51.034;7.120;2022-08-01T13:01:53;1.35;;;0.77;;
48014;SDS011;33780;51.034;7.120;2022-08-01T13:04:19;1.40;;;0.75;;
48014;SDS011;33780;51.034;7.120;2022-08-01T13:06:45;1.48;;;0.70;;
48014;SDS011;33780;51.034;7.120;2022-08-01T13:09:12;2.38;;;0.90;;
48014;SDS011;33780;51.034;7.120;2022-08-01T13:11:38;1.10;;;0.70;;
48014;SDS011;33780;51.034;7.120;2022-08-01T13:14:08;2.05;;;0.80;;
48014;SDS011;33780;51.034;7.120;2022-08-01T13:16:34;1.50;;;0.75;;
48014;SDS011;33780;51.034;7.120;2022-08-01T13:19:11;1.00;;;0.60;;
48014;SDS011;33780;51.034;7.120;2022-08-01T13:21:36;1.67;;;0.70;;
48014;SDS011;33780;51.034;7.120;2022-08-01T13:24:03;2.25;;;0.80;;
48014;SDS011;33780;51.034;7.120;2022-08-01T13:26:44;1.50;;;0.75;;
48014;SDS011;33780;51.034;7.120;2022-08-01T13:29:13;1.40;;;0.80;;
48014;SDS011;33780;51.034;7.120;2022-08-01T13:31:42;3.25;;;0.80;;
48014;SDS011;33780;51.034;7.120;2022-08-01T13:34:09;1.83;;;0.80;;
48014;SDS011;33780;51.034;7.120;2022-08-01T13:36:35;1.30;;;0.70;;
48014;SDS011;33780;51.034;7.120;2022-08-01T13:39:01;1.73;;;1.00;;
48014;SDS011;33780;51.034;7.120;2022-08-01T13:41:46;1.45;;;0.80;;
48014;SDS011;33780;51.034;7.120;2022-08-01T13:44:12;2.22;;;0.88;;
48014;SDS011;33780;51.034;7.120;2022-08-01T13:46:38;1.80;;;0.90;;
48014;SDS011;33780;51.034;7.120;2022-08-01T13:49:05;2.15;;;1.10;;
48014;SDS011;33780;51.034;7.120;2022-08-01T13:51:32;1.67;;;0.90;;
48014;SDS011;33780;51.034;7.120;2022-08-01T13:53:58;1.60;;;0.85;;
48014;SDS011;33780;51.034;7.120;2022-08-01T13:56:24;1.60;;;0.90;;
48014;SDS011;33780;51.034;7.120;2022-08-01T13:58:49;1.80;;;0.85;;
48014;SDS011;33780;51.034;7.120;2022-08-01T14:01:15;1.55;;;0.90;;
48014;SDS011;33780;51.034;7.120;2022-08-01T14:03:41;1.83;;;0.93;;
48014;SDS011;33780;51.034;7.120;2022-08-01T14:06:06;2.70;;;0.75;;
48014;SDS011;33780;51.034;7.120;2022-08-01T14:08:31;2.00;;;0.70;;
48014;SDS011;33780;51.034;7.120;2022-08-01T14:10:57;1.40;;;0.70;;
48014;SDS011;33780;51.034;7.120;2022-08-01T14:13:23;1.35;;;0.73;;
48014;SDS011;33780;51.034;7.120;2022-08-01T14:15:50;1.40;;;0.80;;
48014;SDS011;33780;51.034;7.120;2022-08-01T14:18:15;2.50;;;0.95;;
48014;SDS011;33780;51.034;7.120;2022-08-01T14:20:41;1.50;;;0.80;;
48014;SDS011;33780;51.034;7.120;2022-08-01T14:23:08;2.58;;;1.05;;
48014;SDS011;33780;51.034;7.120;2022-08-01T14:25:33;1.75;;;1.08;;
48014;SDS011;33780;51.034;7.120;2022-08-01T14:27:59;1.55;;;0.70;;
48014;SDS011;33780;51.034;7.120;2022-08-01T14:30:24;1.83;;;0.88;;
48014;SDS011;33780;51.034;7.120;2022-08-01T14:32:49;1.17;;;0.70;;
48014;SDS011;33780;51.034;7.120;2022-08-01T14:35:15;2.65;;;0.90;;
48014;SDS011;33780;51.034;7.120;2022-08-01T14:37:40;1.42;;;0.90;;
48014;SDS011;33780;51.034;7.120;2022-08-01T14:40:06;2.40;;;0.93;;
48014;SDS011;33780;51.034;7.120;2022-08-01T14:42:34;1.42;;;0.82;;
48014;SDS011;33780;51.034;7.120;2022-08-01T14:45:04;2.13;;;0.80;;
48014;SDS011;33780;51.034;7.120;2022-08-01T14:47:34;1.30;;;0.73;;
48014;SDS011;33780;51.034;7.120;2022-08-01T14:50:00;1.30;;;0.77;;
48014;SDS011;33780;51.034;7.120;2022-08-01T14:52:25;1.58;;;0.82;;
48014;SDS011;33780;51.034;7.120;2022-08-01T14:54:51;1.88;;;1.00;;
48014;SDS011;33780;51.034;7.120;2022-08-01T14:57:16;1.35;;;0.80;;
48014;SDS011;33780;51.034;7.120;2022-08-01T14:59:43;1.40;;;0.77;;
48014;SDS011;33780;51.034;7.120;2022-08-01T15:02:08;1.58;;;0.80;;
48014;SDS011;33780;51.034;7.120;2022-08-01T15:04:35;1.48;;;0.95;;
48014;SDS011;33780;51.034;7.120;2022-08-01T15:07:00;2.00;;;0.75;;
48014;SDS011;33780;51.034;7.120;2022-08-01T15:09:26;1.65;;;0.90;;
48014;SDS011;33780;51.034;7.120;2022-08-01T15:11:51;1.58;;;0.90;;
48014;SDS011;33780;51.034;7.120;2022-08-01T15:14:17;2.13;;;1.00;;
48014;SDS011;33780;51.034;7.120;2022-08-01T15:17:01;1.67;;;0.90;;
48014;SDS011;33780;51.034;7.120;2022-08-01T15:19:28;1.60;;;0.90;;
48014;SDS011;33780;51.034;7.120;2022-08-01T15:21:54;1.52;;;1.02;;
48014;SDS011;33780;51.034;7.120;2022-08-01T15:24:19;1.88;;;1.00;;
48014;SDS011;33780;51.034;7.120;2022-08-01T15:26:45;2.10;;;1.20;;
48014;SDS011;33780;51.034;7.120;2022-08-01T15:29:10;1.80;;;1.10;;
48014;SDS011;33780;51.034;7.120;2022-08-01T15:31:38;2.88;;;1.05;;
48014;SDS011;33780;51.034;7.120;2022-08-01T15:34:03;1.90;;;1.00;;
48014;SDS011;33780;51.034;7.120;2022-08-01T15:36:29;2.67;;;1.08;;
48014;SDS011;33780;51.034;7.120;2022-08-01T15:38:54;1.98;;;1.40;;
48014;SDS011;33780;51.034;7.120;2022-08-01T15:41:20;1.90;;;1.15;;
48014;SDS011;33780;51.034;7.120;2022-08-01T15:43:45;2.58;;;1.10;;
48014;SDS011;33780;51.034;7.120;2022-08-01T15:46:10;2.20;;;1.35;;
48014;SDS011;33780;51.034;7.120;2022-08-01T15:48:36;2.10;;;1.27;;
48014;SDS011;33780;51.034;7.120;2022-08-01T15:51:01;1.95;;;1.42;;
48014;SDS011;33780;51.034;7.120;2022-08-01T15:53:26;1.83;;;1.33;;
48014;SDS011;33780;51.034;7.120;2022-08-01T15:55:51;2.53;;;1.52;;
48014;SDS011;33780;51.034;7.120;2022-08-01T15:58:17;1.92;;;1.50;;
48014;SDS011;33780;51.034;7.120;2022-08-01T16:00:42;3.78;;;1.60;;
48014;SDS011;33780;51.034;7.120;2022-08-01T16:03:07;2.25;;;1.50;;
48014;SDS011;33780;51.034;7.120;2022-08-01T16:05:34;2.00;;;1.50;;
48014;SDS011;33780;51.034;7.120;2022-08-01T16:08:00;2.10;;;1.60;;
48014;SDS011;33780;51.034;7.120;2022-08-01T16:10:25;1.92;;;1.55;;
48014;SDS011;33780;51.034;7.120;2022-08-01T16:12:52;2.67;;;1.70;;
48014;SDS011;33780;51.034;7.120;2022-08-01T16:15:18;3.38;;;1.60;;
48014;SDS011;33780;51.034;7.120;2022-08-01T16:17:43;1.90;;;1.48;;
48014;SDS011;33780;51.034;7.120;2022-08-01T16:20:08;1.92;;;1.48;;